createdAt,value
2017-08-24T00:00:25.329Z,2.43
2017-08-24T00:02:54.307Z,2.30
2017-08-24T00:05:23.274Z,2.20
2017-08-24T00:07:52.282Z,2.60
2017-08-24T00:10:21.258Z,2.40
2017-08-24T00:12:50.201Z,2.57
2017-08-24T00:15:19.212Z,2.30
2017-08-24T00:17:48.149Z,2.17
2017-08-24T00:20:17.092Z,2.40
2017-08-24T00:22:46.065Z,2.13
2017-08-24T00:25:15.114Z,2.80
2017-08-24T00:27:44.084Z,2.47
2017-08-24T00:30:13.034Z,2.60
2017-08-24T00:32:41.985Z,2.50
2017-08-24T00:35:10.972Z,2.00
2017-08-24T00:37:40.090Z,2.50
2017-08-24T00:40:09.072Z,2.50
2017-08-24T00:42:38.045Z,2.70
2017-08-24T00:45:07.791Z,2.30
2017-08-24T00:47:36.774Z,2.03
2017-08-24T00:50:05.761Z,2.30
2017-08-24T00:52:34.701Z,2.30
2017-08-24T00:55:04.675Z,2.00
2017-08-24T00:57:33.624Z,2.80
2017-08-24T01:00:02.609Z,2.53
2017-08-24T01:02:31.561Z,2.13
2017-08-24T01:05:00.505Z,2.07
2017-08-24T01:07:29.472Z,2.60
2017-08-24T01:09:58.430Z,2.43
2017-08-24T01:12:27.742Z,2.10
2017-08-24T01:14:56.684Z,2.43
2017-08-24T01:17:26.529Z,2.30
2017-08-24T01:19:55.487Z,2.50
2017-08-24T01:22:24.566Z,2.30
2017-08-24T01:24:53.496Z,2.50
2017-08-24T01:27:22.475Z,2.60
2017-08-24T01:29:51.487Z,2.67
2017-08-24T01:32:20.488Z,2.90
2017-08-24T01:34:49.476Z,2.77
2017-08-24T01:37:18.547Z,2.70
2017-08-24T01:39:47.495Z,3.00
2017-08-24T01:42:16.770Z,2.70
2017-08-24T01:44:45.713Z,2.50
2017-08-24T01:47:15.521Z,2.87
2017-08-24T01:49:44.489Z,2.67
2017-08-24T01:52:13.625Z,3.17
2017-08-24T01:54:42.738Z,2.83
2017-08-24T01:57:11.675Z,2.37
2017-08-24T01:59:40.744Z,2.90
2017-08-24T02:02:09.730Z,2.90
2017-08-24T02:04:38.694Z,3.13
2017-08-24T02:07:07.702Z,3.30
2017-08-24T02:09:36.741Z,2.70
2017-08-24T02:12:05.684Z,3.23
2017-08-24T02:14:34.679Z,2.87
2017-08-24T02:17:03.648Z,3.10
2017-08-24T02:19:32.630Z,3.33
2017-08-24T02:22:01.602Z,4.30
2017-08-24T02:24:32.772Z,3.10
2017-08-24T02:27:02.912Z,3.60
2017-08-24T02:29:31.879Z,4.30
2017-08-24T02:32:00.896Z,3.50
2017-08-24T02:34:29.902Z,3.17
2017-08-24T02:36:58.892Z,3.77
2017-08-24T02:39:27.889Z,4.40
2017-08-24T02:41:56.887Z,4.10
2017-08-24T02:44:26.645Z,3.93
2017-08-24T02:46:55.584Z,4.03
2017-08-24T02:49:24.552Z,4.00
2017-08-24T02:51:53.517Z,4.10
2017-08-24T02:54:22.517Z,3.97
2017-08-24T02:56:51.461Z,4.17
2017-08-24T02:59:20.484Z,4.50
2017-08-24T03:01:49.453Z,4.40
2017-08-24T03:04:18.387Z,4.00
2017-08-24T03:06:47.361Z,5.17
2017-08-24T03:09:17.090Z,5.27
2017-08-24T03:11:46.042Z,5.73
2017-08-24T03:14:15.232Z,6.10
2017-08-24T03:16:44.186Z,6.77
2017-08-24T03:19:13.179Z,7.13
2017-08-24T03:21:42.126Z,7.73
2017-08-24T03:24:11.109Z,8.10
2017-08-24T03:26:40.084Z,10.57
2017-08-24T03:29:09.054Z,10.20
2017-08-24T03:31:38.094Z,12.40
2017-08-24T03:34:07.046Z,14.10
2017-08-24T03:36:36.022Z,13.73
2017-08-24T03:39:05.011Z,14.40
2017-08-24T03:41:33.986Z,15.77
2017-08-24T03:44:02.929Z,15.40
2017-08-24T03:46:31.926Z,17.43
2017-08-24T03:49:00.913Z,16.80
2017-08-24T03:51:29.909Z,16.40
2017-08-24T03:53:58.882Z,17.43
2017-08-24T03:56:27.869Z,19.10
2017-08-24T03:58:56.814Z,20.57
2017-08-24T04:01:25.774Z,19.83
2017-08-24T04:03:54.752Z,19.50
2017-08-24T04:06:23.721Z,22.50
2017-08-24T04:08:52.707Z,20.87
2017-08-24T04:11:21.674Z,24.13
2017-08-24T04:13:50.655Z,24.77
2017-08-24T04:16:19.634Z,23.90
2017-08-24T04:18:48.691Z,24.23
2017-08-24T04:21:17.681Z,21.60
2017-08-24T04:23:46.660Z,24.83
2017-08-24T04:26:15.704Z,22.67
2017-08-24T04:28:47.749Z,23.10
2017-08-24T04:31:17.024Z,25.40
2017-08-24T04:33:46.037Z,25.50
2017-08-24T04:36:15.040Z,24.80
2017-08-24T04:38:44.065Z,25.90
2017-08-24T04:41:13.054Z,27.07
2017-08-24T04:43:42.143Z,25.77
2017-08-24T04:46:11.114Z,28.47
2017-08-24T04:48:40.080Z,26.50
2017-08-24T04:51:09.061Z,27.03
2017-08-24T04:53:38.101Z,32.67
2017-08-24T04:56:07.080Z,31.67
2017-08-24T04:58:36.097Z,30.07
2017-08-24T05:01:05.097Z,31.40
2017-08-24T05:03:34.239Z,30.37
2017-08-24T05:06:03.224Z,34.23
2017-08-24T05:08:32.192Z,34.50
2017-08-24T05:11:01.189Z,34.80
2017-08-24T05:13:30.145Z,35.60
2017-08-24T05:15:59.132Z,34.77
2017-08-24T05:18:28.112Z,35.33
2017-08-24T05:20:57.108Z,36.93
2017-08-24T05:23:26.097Z,33.17
2017-08-24T05:25:55.113Z,36.40
2017-08-24T05:28:24.088Z,33.83
2017-08-24T05:30:53.037Z,35.03
2017-08-24T05:33:22.042Z,35.30
2017-08-24T05:35:51.138Z,34.10
2017-08-24T05:38:20.125Z,35.43
2017-08-24T05:40:49.087Z,33.60
2017-08-24T05:43:18.060Z,32.93
2017-08-24T05:45:47.073Z,33.47
2017-08-24T05:48:16.069Z,33.33
2017-08-24T05:50:45.046Z,33.23
2017-08-24T05:53:14.037Z,33.53
2017-08-24T05:55:43.004Z,33.73
2017-08-24T05:58:13.391Z,34.60
2017-08-24T06:00:42.442Z,34.47
2017-08-24T06:03:11.494Z,33.57
2017-08-24T06:05:40.467Z,31.93
2017-08-24T06:08:09.438Z,32.63
2017-08-24T06:10:38.412Z,33.73
2017-08-24T06:13:07.404Z,34.83
2017-08-24T06:15:36.378Z,35.17
2017-08-24T06:18:05.417Z,34.60
2017-08-24T06:20:34.394Z,33.10
2017-08-24T06:23:03.397Z,35.30
2017-08-24T06:25:32.486Z,34.67
2017-08-24T06:28:01.507Z,35.67
2017-08-24T06:30:30.479Z,31.00
2017-08-24T06:32:59.465Z,34.37
2017-08-24T06:35:28.421Z,33.33
2017-08-24T06:37:57.461Z,31.27
2017-08-24T06:40:26.448Z,33.10
2017-08-24T06:42:55.413Z,35.43
2017-08-24T06:45:25.285Z,33.37
2017-08-24T06:47:54.309Z,32.13
2017-08-24T06:50:23.374Z,32.90
2017-08-24T06:52:52.338Z,32.97
2017-08-24T06:55:21.308Z,36.60
2017-08-24T06:57:50.287Z,34.53
2017-08-24T07:00:19.268Z,34.23
2017-08-24T07:02:48.283Z,30.73
2017-08-24T07:05:17.287Z,31.87
2017-08-24T07:07:46.252Z,33.53
2017-08-24T07:10:15.286Z,31.90
2017-08-24T07:12:44.271Z,32.10
2017-08-24T07:15:13.258Z,29.87
2017-08-24T07:17:42.258Z,29.90
2017-08-24T07:20:11.248Z,30.10
2017-08-24T07:22:40.255Z,27.80
2017-08-24T07:25:09.283Z,28.60
2017-08-24T07:27:38.283Z,26.10
2017-08-24T07:30:07.239Z,23.87
2017-08-24T07:32:36.268Z,23.80
2017-08-24T07:35:05.199Z,22.90
2017-08-24T07:37:34.200Z,21.30
2017-08-24T07:40:03.176Z,18.97
2017-08-24T07:42:32.230Z,21.07
2017-08-24T07:45:01.181Z,19.30
2017-08-24T07:47:30.286Z,19.43
2017-08-24T07:49:59.265Z,20.33
2017-08-24T07:52:28.258Z,20.83
2017-08-24T07:54:57.243Z,20.03
2017-08-24T07:57:26.299Z,18.13
2017-08-24T07:59:56.167Z,16.40
2017-08-24T08:02:25.132Z,16.00
2017-08-24T08:04:54.132Z,18.10
2017-08-24T08:07:23.088Z,15.93
2017-08-24T08:09:52.844Z,16.90
2017-08-24T08:12:21.826Z,15.97
2017-08-24T08:14:50.828Z,18.07
2017-08-24T08:17:19.793Z,14.07
2017-08-24T08:19:48.863Z,13.33
2017-08-24T08:22:17.888Z,14.23
2017-08-24T08:24:46.915Z,12.87
2017-08-24T08:27:15.859Z,15.13
2017-08-24T08:29:44.872Z,14.80
2017-08-24T08:32:13.876Z,14.53
2017-08-24T08:34:42.873Z,12.23
2017-08-24T08:37:11.838Z,12.33
2017-08-24T08:39:40.809Z,12.60
2017-08-24T08:42:09.824Z,11.20
2017-08-24T08:44:38.921Z,11.40
2017-08-24T08:47:07.936Z,11.80
2017-08-24T08:49:37.260Z,10.30
2017-08-24T08:52:06.440Z,9.47
2017-08-24T08:54:35.869Z,9.63
2017-08-24T08:57:04.870Z,11.57
2017-08-24T08:59:34.623Z,9.40
2017-08-24T09:02:03.640Z,8.87
2017-08-24T09:04:33.481Z,10.60
2017-08-24T09:07:03.657Z,9.50
2017-08-24T09:09:32.653Z,9.37
2017-08-24T09:12:01.623Z,8.33
2017-08-24T09:14:30.643Z,7.63
2017-08-24T09:17:00.653Z,6.90
2017-08-24T09:19:30.687Z,7.90
2017-08-24T09:22:00.489Z,7.40
2017-08-24T09:24:29.536Z,6.80
2017-08-24T09:26:58.665Z,8.23
2017-08-24T09:29:27.733Z,6.40
2017-08-24T09:31:56.782Z,7.67
2017-08-24T09:34:25.774Z,7.23
2017-08-24T09:36:54.851Z,7.90
2017-08-24T09:39:23.956Z,7.40
2017-08-24T09:41:53.033Z,6.90
2017-08-24T09:44:22.143Z,6.23
2017-08-24T09:46:51.202Z,6.77
2017-08-24T09:49:20.716Z,7.00
2017-08-24T09:51:49.757Z,5.73
2017-08-24T09:54:18.748Z,6.57
2017-08-24T09:56:47.866Z,5.37
2017-08-24T09:59:17.614Z,6.20
2017-08-24T10:01:47.125Z,7.07
2017-08-24T10:04:16.189Z,6.67
2017-08-24T10:06:46.095Z,6.80
2017-08-24T10:09:15.106Z,6.77
2017-08-24T10:11:44.124Z,7.20
2017-08-24T10:14:13.286Z,5.97
2017-08-24T10:16:42.282Z,5.60
2017-08-24T10:19:11.253Z,6.60
2017-08-24T10:21:40.997Z,6.00
2017-08-24T10:24:10.652Z,6.30
2017-08-24T10:26:39.749Z,5.20
2017-08-24T10:29:08.769Z,4.50
2017-08-24T10:31:38.366Z,5.07
2017-08-24T10:34:07.552Z,4.65
2017-08-24T10:36:36.568Z,4.37
2017-08-24T10:39:05.644Z,4.78
2017-08-24T10:41:34.608Z,4.93
2017-08-24T10:44:03.612Z,4.03
2017-08-24T10:46:32.686Z,4.80
2017-08-24T10:49:01.691Z,4.47
2017-08-24T10:51:30.775Z,4.30
2017-08-24T10:53:59.769Z,4.30
2017-08-24T10:56:28.754Z,4.50
2017-08-24T10:58:57.720Z,5.20
2017-08-24T11:01:26.740Z,4.50
2017-08-24T11:03:55.749Z,4.80
2017-08-24T11:06:26.482Z,4.50
2017-08-24T11:08:55.484Z,4.83
2017-08-24T11:11:25.289Z,5.33
2017-08-24T11:13:54.294Z,4.40
2017-08-24T11:16:23.297Z,4.83
2017-08-24T11:18:52.308Z,4.57
2017-08-24T11:21:21.277Z,4.13
2017-08-24T11:23:50.261Z,4.50
2017-08-24T11:26:19.450Z,4.67
2017-08-24T11:28:48.442Z,4.57
2017-08-24T11:31:17.450Z,4.10
2017-08-24T11:33:47.178Z,3.57
2017-08-24T11:36:16.253Z,4.20
2017-08-24T11:38:45.872Z,4.87
2017-08-24T11:41:14.882Z,3.70
2017-08-24T11:43:43.901Z,3.93
2017-08-24T11:46:12.910Z,3.83
2017-08-24T11:48:41.851Z,4.40
2017-08-24T11:51:10.840Z,4.03
2017-08-24T11:53:39.792Z,3.67
2017-08-24T11:56:08.778Z,3.80
2017-08-24T11:58:37.743Z,4.00
2017-08-24T12:01:06.745Z,3.73
2017-08-24T12:03:35.791Z,4.10
2017-08-24T12:06:04.804Z,4.30
2017-08-24T12:08:33.859Z,3.10
2017-08-24T12:11:02.881Z,3.10
2017-08-24T12:13:31.951Z,3.20
2017-08-24T12:16:00.979Z,3.40
2017-08-24T12:18:30.093Z,2.80
2017-08-24T12:20:59.079Z,3.13
2017-08-24T12:23:28.109Z,2.20
2017-08-24T12:25:57.179Z,2.33
2017-08-24T12:28:26.159Z,1.83
2017-08-24T12:30:55.215Z,2.30
2017-08-24T12:33:24.416Z,3.00
2017-08-24T12:35:53.875Z,2.20
2017-08-24T12:38:23.612Z,2.33
2017-08-24T12:40:52.613Z,2.20
2017-08-24T12:43:21.830Z,1.87
2017-08-24T12:45:50.796Z,1.90
2017-08-24T12:48:19.746Z,2.33
2017-08-24T12:50:48.722Z,2.27
2017-08-24T12:53:17.674Z,2.20
2017-08-24T12:55:46.703Z,2.07
2017-08-24T12:58:15.713Z,2.27
2017-08-24T13:00:44.686Z,1.83
2017-08-24T13:03:13.659Z,2.00
2017-08-24T13:05:42.618Z,1.90
2017-08-24T13:08:11.632Z,1.80
2017-08-24T13:10:40.734Z,2.07
2017-08-24T13:13:09.704Z,2.20
2017-08-24T13:15:38.706Z,2.10
2017-08-24T13:18:07.681Z,2.00
2017-08-24T13:20:36.678Z,2.17
2017-08-24T13:23:05.648Z,1.80
2017-08-24T13:25:35.035Z,1.80
2017-08-24T13:28:04.172Z,1.90
2017-08-24T13:30:33.136Z,2.00
2017-08-24T13:33:02.124Z,1.67
2017-08-24T13:35:31.099Z,1.83
2017-08-24T13:38:00.103Z,1.90
2017-08-24T13:40:29.110Z,1.70
2017-08-24T13:42:58.146Z,2.10
2017-08-24T13:45:27.122Z,1.97
2017-08-24T13:47:56.106Z,2.07
2017-08-24T13:50:25.090Z,1.80
2017-08-24T13:52:54.073Z,2.07
2017-08-24T13:55:23.077Z,1.87
2017-08-24T13:57:52.036Z,2.00
2017-08-24T14:00:20.983Z,1.83
2017-08-24T14:02:49.980Z,2.07
2017-08-24T14:05:18.947Z,2.70
2017-08-24T14:07:47.952Z,2.50
2017-08-24T14:10:16.917Z,2.00
2017-08-24T14:12:45.884Z,1.60
2017-08-24T14:15:14.849Z,1.80
2017-08-24T14:17:44.608Z,2.00
2017-08-24T14:20:13.742Z,1.40
2017-08-24T14:22:42.740Z,1.63
2017-08-24T14:25:12.411Z,1.80
2017-08-24T14:27:41.470Z,1.70
2017-08-24T14:30:10.493Z,2.50
2017-08-24T14:32:39.503Z,1.83
2017-08-24T14:35:08.532Z,1.80
2017-08-24T14:37:37.669Z,1.40
2017-08-24T14:40:06.631Z,1.90
2017-08-24T14:42:35.656Z,1.60
2017-08-24T14:45:04.611Z,1.90
2017-08-24T14:47:33.607Z,1.77
2017-08-24T14:50:02.665Z,2.40
2017-08-24T14:52:31.792Z,2.43
2017-08-24T14:55:00.765Z,2.07
2017-08-24T14:57:29.755Z,2.33
2017-08-24T14:59:59.470Z,1.60
2017-08-24T15:02:28.494Z,1.70
2017-08-24T15:04:57.460Z,1.77
2017-08-24T15:07:26.494Z,2.20
2017-08-24T15:09:55.445Z,2.20
2017-08-24T15:12:24.464Z,1.90
2017-08-24T15:14:53.425Z,2.00
2017-08-24T15:17:22.413Z,2.30
2017-08-24T15:19:52.233Z,2.07
2017-08-24T15:22:21.473Z,1.73
2017-08-24T15:24:50.496Z,2.07
2017-08-24T15:27:19.464Z,2.03
2017-08-24T15:29:48.470Z,2.10
2017-08-24T15:32:18.097Z,4.00
2017-08-24T15:34:47.081Z,2.30
2017-08-24T15:37:16.029Z,2.30
2017-08-24T15:39:45.021Z,1.73
2017-08-24T15:42:13.990Z,2.40
2017-08-24T15:44:42.986Z,2.80
2017-08-24T15:47:11.929Z,2.23
2017-08-24T15:49:40.954Z,1.90
2017-08-24T15:52:09.915Z,2.50
2017-08-24T15:54:38.872Z,2.67
2017-08-24T15:57:07.851Z,2.50
2017-08-24T15:59:36.831Z,4.27
2017-08-24T16:02:05.918Z,4.30
2017-08-24T16:04:35.654Z,5.83
2017-08-24T16:07:04.630Z,5.43
2017-08-24T16:09:33.613Z,5.13
2017-08-24T16:12:03.486Z,4.57
2017-08-24T16:14:32.483Z,5.15
2017-08-24T16:17:01.435Z,4.70
2017-08-24T16:19:30.437Z,3.87
2017-08-24T16:21:59.411Z,3.90
2017-08-24T16:24:28.373Z,4.87
2017-08-24T16:26:57.360Z,3.47
2017-08-24T16:29:26.366Z,3.80
2017-08-24T16:31:55.343Z,3.80
2017-08-24T16:34:24.322Z,3.50
2017-08-24T16:36:53.259Z,3.07
2017-08-24T16:39:22.244Z,4.23
2017-08-24T16:41:51.211Z,3.17
2017-08-24T16:44:20.219Z,3.10
2017-08-24T16:46:49.943Z,3.30
2017-08-24T16:49:19.026Z,3.03
2017-08-24T16:51:48.016Z,3.30
2017-08-24T16:54:16.989Z,3.60
2017-08-24T16:56:45.951Z,3.10
2017-08-24T16:59:14.944Z,2.83
2017-08-24T17:01:43.927Z,2.60
2017-08-24T17:04:12.910Z,2.90
2017-08-24T17:06:42.711Z,2.47
2017-08-24T17:09:11.705Z,2.80
2017-08-24T17:11:40.685Z,2.83
2017-08-24T17:14:09.676Z,2.60
2017-08-24T17:16:38.638Z,2.20
2017-08-24T17:19:07.692Z,2.60
2017-08-24T17:21:36.674Z,2.27
2017-08-24T17:24:05.663Z,2.30
2017-08-24T17:26:34.624Z,2.40
2017-08-24T17:29:03.671Z,2.23
2017-08-24T17:31:32.608Z,2.00
2017-08-24T17:34:01.566Z,2.20
2017-08-24T17:36:30.598Z,2.00
2017-08-24T17:38:59.577Z,2.27
2017-08-24T17:41:28.549Z,2.00
2017-08-24T17:43:57.532Z,2.23
2017-08-24T17:46:26.504Z,2.20
2017-08-24T17:48:55.496Z,2.23
2017-08-24T17:51:24.457Z,2.20
2017-08-24T17:53:54.199Z,1.57
2017-08-24T17:56:23.147Z,1.93
2017-08-24T17:58:52.162Z,2.13
2017-08-24T18:01:21.139Z,1.90
2017-08-24T18:03:50.142Z,2.20
2017-08-24T18:06:19.135Z,2.10
2017-08-24T18:08:48.101Z,1.83
2017-08-24T18:11:17.206Z,2.13
2017-08-24T18:13:46.182Z,2.33
2017-08-24T18:16:15.136Z,2.37
2017-08-24T18:18:44.118Z,2.40
2017-08-24T18:21:13.100Z,2.00
2017-08-24T18:23:42.085Z,2.13
2017-08-24T18:26:11.058Z,2.27
2017-08-24T18:28:40.044Z,2.13
2017-08-24T18:31:09.005Z,2.50
2017-08-24T18:33:38.015Z,2.30
2017-08-24T18:36:07.022Z,2.20
2017-08-24T18:38:36.016Z,2.27
2017-08-24T18:41:04.971Z,2.40
2017-08-24T18:43:33.921Z,2.40
2017-08-24T18:46:02.917Z,2.07
2017-08-24T18:48:31.882Z,2.00
2017-08-24T18:51:00.881Z,2.33
2017-08-24T18:53:29.841Z,2.03
2017-08-24T18:55:58.833Z,2.00
2017-08-24T18:58:27.794Z,1.80
2017-08-24T19:00:56.784Z,1.93
2017-08-24T19:03:25.741Z,1.87
2017-08-24T19:05:54.838Z,2.00
2017-08-24T19:08:23.893Z,2.03
2017-08-24T19:10:52.893Z,1.70
2017-08-24T19:13:22.008Z,2.20
2017-08-24T19:15:51.005Z,2.00
2017-08-24T19:18:19.979Z,2.20
2017-08-24T19:20:48.959Z,2.07
2017-08-24T19:23:18.182Z,2.43
2017-08-24T19:25:47.164Z,2.10
2017-08-24T19:28:16.144Z,2.07
2017-08-24T19:30:45.212Z,2.07
2017-08-24T19:33:14.412Z,1.83
2017-08-24T19:35:43.428Z,2.07
2017-08-24T19:38:12.450Z,2.20
2017-08-24T19:40:41.439Z,2.23
2017-08-24T19:43:10.922Z,3.17
2017-08-24T19:45:39.928Z,2.50
2017-08-24T19:48:08.887Z,2.30
2017-08-24T19:50:37.915Z,2.03
2017-08-24T19:53:06.913Z,2.40
2017-08-24T19:55:35.904Z,1.90
2017-08-24T19:58:04.933Z,2.10
2017-08-24T20:00:33.906Z,1.87
2017-08-24T20:03:03.217Z,2.60
2017-08-24T20:05:32.206Z,2.20
2017-08-24T20:08:01.166Z,2.13
2017-08-24T20:10:30.150Z,2.67
2017-08-24T20:12:59.112Z,2.50
2017-08-24T20:15:28.116Z,2.83
2017-08-24T20:17:57.854Z,2.23
2017-08-24T20:20:27.591Z,2.80
2017-08-24T20:22:56.894Z,2.90
2017-08-24T20:25:25.902Z,2.90
2017-08-24T20:27:54.956Z,2.27
2017-08-24T20:30:23.947Z,2.50
2017-08-24T20:32:52.898Z,2.70
2017-08-24T20:35:21.878Z,3.30
2017-08-24T20:37:50.853Z,2.30
2017-08-24T20:40:20.168Z,2.77
2017-08-24T20:42:49.120Z,3.07
2017-08-24T20:45:18.198Z,2.80
2017-08-24T20:47:59.139Z,3.00
2017-08-24T20:50:30.394Z,3.20
2017-08-24T20:52:59.336Z,2.93
2017-08-24T20:55:28.316Z,3.37
2017-08-24T20:57:57.277Z,3.03
2017-08-24T21:00:26.272Z,2.73
2017-08-24T21:02:55.237Z,2.70
2017-08-24T21:05:24.192Z,3.20
2017-08-24T21:07:53.154Z,3.30
2017-08-24T21:10:22.128Z,2.70
2017-08-24T21:12:51.065Z,2.80
2017-08-24T21:15:20.223Z,2.93
2017-08-24T21:17:49.165Z,3.63
2017-08-24T21:20:18.146Z,3.10
2017-08-24T21:22:47.110Z,3.10
2017-08-24T21:25:16.357Z,2.80
2017-08-24T21:27:45.318Z,2.70
2017-08-24T21:30:14.456Z,3.00
2017-08-24T21:32:43.421Z,2.57
2017-08-24T21:35:12.486Z,2.80
2017-08-24T21:37:41.498Z,2.40
2017-08-24T21:40:10.463Z,2.63
2017-08-24T21:42:39.583Z,2.73
2017-08-24T21:45:08.596Z,2.50
2017-08-24T21:47:37.546Z,2.83
2017-08-24T21:50:08.201Z,2.57
2017-08-24T21:52:37.160Z,2.33
2017-08-24T21:55:06.152Z,2.50
2017-08-24T21:57:35.155Z,2.57
2017-08-24T22:00:04.318Z,3.00
2017-08-24T22:02:33.260Z,2.90
2017-08-24T22:05:02.270Z,2.40
2017-08-24T22:07:31.217Z,3.03
2017-08-24T22:10:00.173Z,2.13
2017-08-24T22:12:29.182Z,2.57
2017-08-24T22:14:58.264Z,2.50
2017-08-24T22:17:27.240Z,2.60
2017-08-24T22:19:57.369Z,2.20
2017-08-24T22:22:26.336Z,2.63
2017-08-24T22:24:55.329Z,2.23
2017-08-24T22:27:24.272Z,2.60
2017-08-24T22:29:53.269Z,3.87
2017-08-24T22:32:22.229Z,2.17
2017-08-24T22:34:51.175Z,2.13
2017-08-24T22:37:20.159Z,2.93
2017-08-24T22:39:49.113Z,2.70
2017-08-24T22:42:18.116Z,2.40
2017-08-24T22:44:47.066Z,2.83
2017-08-24T22:47:16.045Z,2.30
2017-08-24T22:49:45.008Z,2.40
2017-08-24T22:52:13.986Z,2.07
2017-08-24T22:54:48.549Z,2.37
2017-08-24T22:57:23.181Z,2.40
2017-08-24T22:59:58.038Z,2.57
2017-08-24T23:02:32.665Z,1.77
2017-08-24T23:05:02.959Z,2.17
2017-08-24T23:07:31.898Z,2.20
2017-08-24T23:10:00.892Z,2.03
2017-08-24T23:12:29.863Z,2.60
2017-08-24T23:14:58.830Z,2.10
2017-08-24T23:17:27.819Z,2.10
2017-08-24T23:19:57.545Z,2.10
2017-08-24T23:22:26.504Z,2.27
2017-08-24T23:24:55.456Z,1.90
2017-08-24T23:27:24.392Z,2.30
2017-08-24T23:29:54.256Z,3.10
2017-08-24T23:32:23.217Z,2.40
2017-08-24T23:34:52.186Z,2.20
2017-08-24T23:37:21.947Z,2.13
2017-08-24T23:39:51.575Z,1.97
2017-08-24T23:42:20.556Z,1.90
2017-08-24T23:44:49.610Z,1.83
2017-08-24T23:47:18.586Z,1.80
2017-08-24T23:49:47.934Z,1.70
2017-08-24T23:52:16.900Z,2.30
2017-08-24T23:54:45.864Z,2.50
2017-08-24T23:57:14.851Z,2.03
2017-08-24T23:59:44.573Z,2.07
